sensor_id;sensor_type;location;lat;lon;timestamp;pressure;altitude;pressure_sealevel;temperature;humidity
60642;BME280;46837;52.446;-1.930;2022-08-19T00:00:09;99770.04;;;19.28;79.08
60642;BME280;46837;52.446;-1.930;2022-08-19T00:01:09;99773.19;;;19.24;79.38
60642;BME280;46837;52.446;-1.930;2022-08-19T00:02:09;99772.98;;;19.27;79.20
60642;BME280;46837;52.446;-1.930;2022-08-19T00:03:09;99772.98;;;19.29;79.10
60642;BME280;46837;52.446;-1.930;2022-08-19T00:04:09;99778.06;;;19.28;79.15
60642;BME280;46837;52.446;-1.930;2022-08-19T00:05:10;99776.00;;;19.29;79.16
60642;BME280;46837;52.446;-1.930;2022-08-19T00:06:09;99775.22;;;19.27;79.08
60642;BME280;46837;52.446;-1.930;2022-08-19T00:07:09;99772.08;;;19.33;78.85
60642;BME280;46837;52.446;-1.930;2022-08-19T00:08:09;99774.91;;;19.33;78.89
60642;BME280;46837;52.446;-1.930;2022-08-19T00:09:10;99775.28;;;19.33;78.84
60642;BME280;46837;52.446;-1.930;2022-08-19T00:10:09;99778.07;;;19.33;78.87
60642;BME280;46837;52.446;-1.930;2022-08-19T00:11:09;99775.10;;;19.32;78.74
60642;BME280;46837;52.446;-1.930;2022-08-19T00:12:09;99776.18;;;19.33;78.68
60642;BME280;46837;52.446;-1.930;2022-08-19T00:13:09;99773.35;;;19.33;78.60
60642;BME280;46837;52.446;-1.930;2022-08-19T00:14:10;99776.00;;;19.31;78.51
60642;BME280;46837;52.446;-1.930;2022-08-19T00:15:12;99776.95;;;19.30;78.53
60642;BME280;46837;52.446;-1.930;2022-08-19T00:16:09;99776.19;;;19.28;78.49
60642;BME280;46837;52.446;-1.930;2022-08-19T00:17:09;99778.41;;;19.30;78.40
60642;BME280;46837;52.446;-1.930;2022-08-19T00:18:09;99782.25;;;19.26;78.43
60642;BME280;46837;52.446;-1.930;2022-08-19T00:19:09;99777.81;;;19.21;78.47
60642;BME280;46837;52.446;-1.930;2022-08-19T00:20:16;99777.44;;;19.20;78.50
60642;BME280;46837;52.446;-1.930;2022-08-19T00:21:10;99780.69;;;19.22;78.40
60642;BME280;46837;52.446;-1.930;2022-08-19T00:22:09;99775.20;;;19.22;78.32
60642;BME280;46837;52.446;-1.930;2022-08-19T00:23:09;99779.43;;;19.20;78.34
60642;BME280;46837;52.446;-1.930;2022-08-19T00:24:10;99788.18;;;19.15;78.57
60642;BME280;46837;52.446;-1.930;2022-08-19T00:25:09;99785.83;;;19.13;78.65
60642;BME280;46837;52.446;-1.930;2022-08-19T00:26:09;99787.62;;;19.15;78.53
60642;BME280;46837;52.446;-1.930;2022-08-19T00:27:09;99787.27;;;19.16;78.47
60642;BME280;46837;52.446;-1.930;2022-08-19T00:28:09;99785.46;;;19.15;78.53
60642;BME280;46837;52.446;-1.930;2022-08-19T00:29:10;99787.89;;;19.07;78.79
60642;BME280;46837;52.446;-1.930;2022-08-19T00:30:09;99787.59;;;19.10;78.67
60642;BME280;46837;52.446;-1.930;2022-08-19T00:31:09;99789.53;;;19.11;78.54
60642;BME280;46837;52.446;-1.930;2022-08-19T00:32:09;99787.85;;;19.12;78.54
60642;BME280;46837;52.446;-1.930;2022-08-19T00:33:09;99786.50;;;19.11;78.55
60642;BME280;46837;52.446;-1.930;2022-08-19T00:34:09;99783.65;;;19.14;78.40
60642;BME280;46837;52.446;-1.930;2022-08-19T00:35:09;99781.61;;;19.13;78.40
60642;BME280;46837;52.446;-1.930;2022-08-19T00:36:09;99776.93;;;19.13;78.40
60642;BME280;46837;52.446;-1.930;2022-08-19T00:37:09;99771.71;;;19.13;78.40
60642;BME280;46837;52.446;-1.930;2022-08-19T00:38:09;99773.58;;;19.17;78.31
60642;BME280;46837;52.446;-1.930;2022-08-19T00:39:09;99773.86;;;19.18;78.21
60642;BME280;46837;52.446;-1.930;2022-08-19T00:40:09;99769.72;;;19.19;78.21
60642;BME280;46837;52.446;-1.930;2022-08-19T00:41:10;99769.82;;;19.20;78.22
60642;BME280;46837;52.446;-1.930;2022-08-19T00:42:09;99768.94;;;19.15;78.48
60642;BME280;46837;52.446;-1.930;2022-08-19T00:43:12;99768.42;;;19.16;78.41
60642;BME280;46837;52.446;-1.930;2022-08-19T00:44:14;99768.85;;;19.19;78.26
60642;BME280;46837;52.446;-1.930;2022-08-19T00:45:17;99767.33;;;19.20;78.24
60642;BME280;46837;52.446;-1.930;2022-08-19T00:46:09;99765.53;;;19.16;78.27
60642;BME280;46837;52.446;-1.930;2022-08-19T00:47:09;99768.32;;;19.16;78.32
60642;BME280;46837;52.446;-1.930;2022-08-19T00:48:09;99767.09;;;19.19;78.22
60642;BME280;46837;52.446;-1.930;2022-08-19T00:49:15;99772.30;;;19.21;78.08
60642;BME280;46837;52.446;-1.930;2022-08-19T00:50:09;99768.77;;;19.18;78.15
60642;BME280;46837;52.446;-1.930;2022-08-19T00:51:09;99768.15;;;19.16;78.29
60642;BME280;46837;52.446;-1.930;2022-08-19T00:53:12;99764.96;;;19.13;78.28
60642;BME280;46837;52.446;-1.930;2022-08-19T00:54:09;99766.85;;;19.12;78.27
60642;BME280;46837;52.446;-1.930;2022-08-19T00:55:09;99766.63;;;19.10;78.36
60642;BME280;46837;52.446;-1.930;2022-08-19T00:56:09;99762.35;;;19.11;78.30
60642;BME280;46837;52.446;-1.930;2022-08-19T00:57:11;99768.72;;;19.13;78.18
60642;BME280;46837;52.446;-1.930;2022-08-19T00:58:11;99770.00;;;19.12;78.26
60642;BME280;46837;52.446;-1.930;2022-08-19T00:59:11;99768.82;;;19.11;78.41
60642;BME280;46837;52.446;-1.930;2022-08-19T01:00:14;99769.93;;;19.11;78.40
60642;BME280;46837;52.446;-1.930;2022-08-19T01:01:09;99769.31;;;19.10;78.55
60642;BME280;46837;52.446;-1.930;2022-08-19T01:02:09;99764.82;;;19.10;78.50
60642;BME280;46837;52.446;-1.930;2022-08-19T01:03:10;99771.98;;;19.08;78.60
60642;BME280;46837;52.446;-1.930;2022-08-19T01:04:09;99769.67;;;19.06;78.75
60642;BME280;46837;52.446;-1.930;2022-08-19T01:05:14;99772.96;;;19.09;78.70
60642;BME280;46837;52.446;-1.930;2022-08-19T01:06:09;99773.57;;;19.10;78.63
60642;BME280;46837;52.446;-1.930;2022-08-19T01:07:09;99776.24;;;19.11;78.68
60642;BME280;46837;52.446;-1.930;2022-08-19T01:08:09;99775.96;;;19.13;78.61
60642;BME280;46837;52.446;-1.930;2022-08-19T01:09:09;99780.19;;;19.13;78.65
60642;BME280;46837;52.446;-1.930;2022-08-19T01:10:10;99781.53;;;19.12;78.75
60642;BME280;46837;52.446;-1.930;2022-08-19T01:11:09;99778.40;;;19.11;78.78
60642;BME280;46837;52.446;-1.930;2022-08-19T01:12:09;99781.39;;;19.11;78.84
60642;BME280;46837;52.446;-1.930;2022-08-19T01:13:09;99780.54;;;19.12;78.85
60642;BME280;46837;52.446;-1.930;2022-08-19T01:14:09;99786.30;;;19.10;78.95
60642;BME280;46837;52.446;-1.930;2022-08-19T01:15:09;99783.79;;;19.06;79.24
60642;BME280;46837;52.446;-1.930;2022-08-19T01:16:10;99784.43;;;19.10;79.15
60642;BME280;46837;52.446;-1.930;2022-08-19T01:17:09;99781.56;;;19.08;79.25
60642;BME280;46837;52.446;-1.930;2022-08-19T01:18:10;99783.26;;;19.09;79.26
60642;BME280;46837;52.446;-1.930;2022-08-19T01:20:12;99775.66;;;19.09;79.34
60642;BME280;46837;52.446;-1.930;2022-08-19T01:23:09;99777.09;;;19.10;79.38
60642;BME280;46837;52.446;-1.930;2022-08-19T01:24:09;99780.91;;;19.12;79.36
60642;BME280;46837;52.446;-1.930;2022-08-19T01:25:09;99778.77;;;19.12;79.44
60642;BME280;46837;52.446;-1.930;2022-08-19T01:26:10;99775.65;;;19.12;79.42
60642;BME280;46837;52.446;-1.930;2022-08-19T01:27:09;99782.14;;;19.10;79.55
60642;BME280;46837;52.446;-1.930;2022-08-19T01:28:14;99782.09;;;19.12;79.54
60642;BME280;46837;52.446;-1.930;2022-08-19T01:29:09;99780.87;;;19.12;79.55
60642;BME280;46837;52.446;-1.930;2022-08-19T01:30:11;99785.86;;;19.10;79.62
60642;BME280;46837;52.446;-1.930;2022-08-19T01:31:14;99785.20;;;19.07;79.77
60642;BME280;46837;52.446;-1.930;2022-08-19T01:32:10;99784.95;;;19.05;79.85
60642;BME280;46837;52.446;-1.930;2022-08-19T01:33:09;99786.16;;;19.06;79.86
60642;BME280;46837;52.446;-1.930;2022-08-19T01:34:09;99787.93;;;19.08;79.77
60642;BME280;46837;52.446;-1.930;2022-08-19T01:35:09;99785.98;;;19.06;79.82
60642;BME280;46837;52.446;-1.930;2022-08-19T01:36:12;99781.32;;;18.99;80.15
60642;BME280;46837;52.446;-1.930;2022-08-19T01:37:09;99785.70;;;18.99;80.24
60642;BME280;46837;52.446;-1.930;2022-08-19T01:38:19;99777.49;;;18.95;80.42
60642;BME280;46837;52.446;-1.930;2022-08-19T01:39:10;99779.06;;;18.97;80.30
60642;BME280;46837;52.446;-1.930;2022-08-19T01:40:09;99780.38;;;18.92;80.53
60642;BME280;46837;52.446;-1.930;2022-08-19T01:41:10;99784.09;;;18.92;80.50
60642;BME280;46837;52.446;-1.930;2022-08-19T01:42:10;99786.93;;;18.93;80.40
60642;BME280;46837;52.446;-1.930;2022-08-19T01:43:09;99789.38;;;18.93;80.43
60642;BME280;46837;52.446;-1.930;2022-08-19T01:44:09;99788.55;;;18.93;80.47
60642;BME280;46837;52.446;-1.930;2022-08-19T01:45:09;99794.30;;;18.90;80.69
60642;BME280;46837;52.446;-1.930;2022-08-19T01:46:09;99793.91;;;18.91;80.60
60642;BME280;46837;52.446;-1.930;2022-08-19T01:47:09;99793.57;;;18.93;80.54
60642;BME280;46837;52.446;-1.930;2022-08-19T01:48:09;99796.23;;;18.91;80.81
60642;BME280;46837;52.446;-1.930;2022-08-19T01:49:09;99800.04;;;18.92;80.84
60642;BME280;46837;52.446;-1.930;2022-08-19T01:50:09;99800.18;;;18.90;81.01
60642;BME280;46837;52.446;-1.930;2022-08-19T01:51:09;99798.04;;;18.94;80.86
60642;BME280;46837;52.446;-1.930;2022-08-19T01:52:09;99797.33;;;18.97;80.76
60642;BME280;46837;52.446;-1.930;2022-08-19T01:53:10;99799.39;;;18.99;80.73
60642;BME280;46837;52.446;-1.930;2022-08-19T01:54:09;99796.90;;;18.99;80.79
60642;BME280;46837;52.446;-1.930;2022-08-19T01:55:11;99798.32;;;19.04;80.57
60642;BME280;46837;52.446;-1.930;2022-08-19T01:56:09;99802.07;;;19.06;80.56
60642;BME280;46837;52.446;-1.930;2022-08-19T01:57:10;99804.54;;;19.07;80.48
60642;BME280;46837;52.446;-1.930;2022-08-19T01:58:19;99807.15;;;19.06;80.52
60642;BME280;46837;52.446;-1.930;2022-08-19T01:59:11;99809.76;;;19.05;80.65
60642;BME280;46837;52.446;-1.930;2022-08-19T02:00:12;99808.71;;;19.08;80.47
60642;BME280;46837;52.446;-1.930;2022-08-19T02:01:09;99809.37;;;19.08;80.45
60642;BME280;46837;52.446;-1.930;2022-08-19T02:02:10;99809.50;;;19.10;80.40
60642;BME280;46837;52.446;-1.930;2022-08-19T02:03:09;99807.35;;;19.12;80.32
60642;BME280;46837;52.446;-1.930;2022-08-19T02:04:09;99805.80;;;19.07;80.39
60642;BME280;46837;52.446;-1.930;2022-08-19T02:05:09;99807.38;;;19.06;80.48
60642;BME280;46837;52.446;-1.930;2022-08-19T02:06:09;99807.67;;;19.07;80.31
60642;BME280;46837;52.446;-1.930;2022-08-19T02:07:09;99807.94;;;19.05;80.29
60642;BME280;46837;52.446;-1.930;2022-08-19T02:08:09;99805.68;;;19.03;80.31
60642;BME280;46837;52.446;-1.930;2022-08-19T02:09:09;99808.89;;;19.02;80.28
60642;BME280;46837;52.446;-1.930;2022-08-19T02:10:10;99808.11;;;19.00;80.34
60642;BME280;46837;52.446;-1.930;2022-08-19T02:11:09;99808.03;;;18.96;80.45
60642;BME280;46837;52.446;-1.930;2022-08-19T02:12:09;99807.05;;;18.98;80.46
60642;BME280;46837;52.446;-1.930;2022-08-19T02:13:09;99803.69;;;18.97;80.42
60642;BME280;46837;52.446;-1.930;2022-08-19T02:14:09;99803.69;;;18.94;80.60
60642;BME280;46837;52.446;-1.930;2022-08-19T02:15:09;99802.07;;;18.95;80.53
60642;BME280;46837;52.446;-1.930;2022-08-19T02:16:09;99803.50;;;18.96;80.60
60642;BME280;46837;52.446;-1.930;2022-08-19T02:17:09;99801.38;;;18.93;80.71
60642;BME280;46837;52.446;-1.930;2022-08-19T02:18:09;99799.10;;;18.94;80.62
60642;BME280;46837;52.446;-1.930;2022-08-19T02:19:09;99799.72;;;18.96;80.57
60642;BME280;46837;52.446;-1.930;2022-08-19T02:20:09;99795.28;;;18.91;80.79
60642;BME280;46837;52.446;-1.930;2022-08-19T02:21:09;99799.99;;;18.91;80.81
60642;BME280;46837;52.446;-1.930;2022-08-19T02:22:09;99800.87;;;18.89;80.87
60642;BME280;46837;52.446;-1.930;2022-08-19T02:23:09;99803.77;;;18.86;80.91
60642;BME280;46837;52.446;-1.930;2022-08-19T02:24:09;99804.62;;;18.81;81.19
60642;BME280;46837;52.446;-1.930;2022-08-19T02:25:12;99804.52;;;18.84;81.13
60642;BME280;46837;52.446;-1.930;2022-08-19T02:26:09;99807.22;;;18.79;81.34
60642;BME280;46837;52.446;-1.930;2022-08-19T02:27:09;99810.22;;;18.81;81.18
60642;BME280;46837;52.446;-1.930;2022-08-19T02:28:09;99810.08;;;18.80;81.11
60642;BME280;46837;52.446;-1.930;2022-08-19T02:29:09;99811.89;;;18.76;81.30
60642;BME280;46837;52.446;-1.930;2022-08-19T02:30:16;99812.01;;;18.75;81.28
60642;BME280;46837;52.446;-1.930;2022-08-19T02:31:16;99815.89;;;18.72;81.47
60642;BME280;46837;52.446;-1.930;2022-08-19T02:32:09;99812.29;;;18.74;81.35
60642;BME280;46837;52.446;-1.930;2022-08-19T02:33:09;99816.41;;;18.74;81.18
60642;BME280;46837;52.446;-1.930;2022-08-19T02:34:09;99816.31;;;18.71;81.27
60642;BME280;46837;52.446;-1.930;2022-08-19T02:35:09;99822.10;;;18.68;81.48
60642;BME280;46837;52.446;-1.930;2022-08-19T02:36:09;99823.41;;;18.70;81.23
60642;BME280;46837;52.446;-1.930;2022-08-19T02:37:09;99825.67;;;18.71;81.17
60642;BME280;46837;52.446;-1.930;2022-08-19T02:38:13;99825.62;;;18.70;81.09
60642;BME280;46837;52.446;-1.930;2022-08-19T02:39:09;99823.69;;;18.67;81.28
60642;BME280;46837;52.446;-1.930;2022-08-19T02:40:09;99820.94;;;18.65;81.23
60642;BME280;46837;52.446;-1.930;2022-08-19T02:41:16;99821.49;;;18.67;81.10
60642;BME280;46837;52.446;-1.930;2022-08-19T02:42:09;99820.89;;;18.66;81.07
60642;BME280;46837;52.446;-1.930;2022-08-19T02:43:09;99820.52;;;18.64;81.07
60642;BME280;46837;52.446;-1.930;2022-08-19T02:44:09;99820.48;;;18.65;80.93
60642;BME280;46837;52.446;-1.930;2022-08-19T02:45:09;99821.41;;;18.63;80.95
60642;BME280;46837;52.446;-1.930;2022-08-19T02:47:09;99819.48;;;18.63;80.95
60642;BME280;46837;52.446;-1.930;2022-08-19T02:48:09;99820.04;;;18.57;80.99
60642;BME280;46837;52.446;-1.930;2022-08-19T02:49:09;99821.43;;;18.57;81.10
60642;BME280;46837;52.446;-1.930;2022-08-19T02:50:09;99822.03;;;18.57;80.94
60642;BME280;46837;52.446;-1.930;2022-08-19T02:51:09;99823.19;;;18.57;80.89
60642;BME280;46837;52.446;-1.930;2022-08-19T02:52:09;99821.95;;;18.52;81.08
60642;BME280;46837;52.446;-1.930;2022-08-19T02:53:09;99819.19;;;18.52;81.13
60642;BME280;46837;52.446;-1.930;2022-08-19T02:54:09;99817.51;;;18.51;81.03
60642;BME280;46837;52.446;-1.930;2022-08-19T02:55:09;99818.73;;;18.49;81.16
60642;BME280;46837;52.446;-1.930;2022-08-19T02:56:09;99821.90;;;18.49;81.26
60642;BME280;46837;52.446;-1.930;2022-08-19T02:57:09;99824.11;;;18.52;81.08
60642;BME280;46837;52.446;-1.930;2022-08-19T02:58:09;99825.44;;;18.52;81.12
60642;BME280;46837;52.446;-1.930;2022-08-19T02:59:11;99822.15;;;18.54;81.20
60642;BME280;46837;52.446;-1.930;2022-08-19T03:00:09;99827.66;;;18.57;81.07
60642;BME280;46837;52.446;-1.930;2022-08-19T03:01:09;99830.17;;;18.60;80.82
60642;BME280;46837;52.446;-1.930;2022-08-19T03:02:09;99829.77;;;18.63;80.80
60642;BME280;46837;52.446;-1.930;2022-08-19T03:03:09;99833.96;;;18.67;80.56
60642;BME280;46837;52.446;-1.930;2022-08-19T03:04:10;99833.61;;;18.67;80.62
60642;BME280;46837;52.446;-1.930;2022-08-19T03:05:09;99834.74;;;18.69;80.55
60642;BME280;46837;52.446;-1.930;2022-08-19T03:06:13;99833.94;;;18.71;80.51
60642;BME280;46837;52.446;-1.930;2022-08-19T03:07:09;99833.52;;;18.71;80.34
60642;BME280;46837;52.446;-1.930;2022-08-19T03:08:09;99835.90;;;18.69;80.33
60642;BME280;46837;52.446;-1.930;2022-08-19T03:09:09;99832.09;;;18.71;79.95
60642;BME280;46837;52.446;-1.930;2022-08-19T03:10:09;99830.97;;;18.75;79.74
60642;BME280;46837;52.446;-1.930;2022-08-19T03:11:14;99831.84;;;18.75;79.50
60642;BME280;46837;52.446;-1.930;2022-08-19T03:12:09;99834.27;;;18.75;79.37
60642;BME280;46837;52.446;-1.930;2022-08-19T03:13:09;99833.02;;;18.71;79.28
60642;BME280;46837;52.446;-1.930;2022-08-19T03:14:09;99836.11;;;18.72;79.25
60642;BME280;46837;52.446;-1.930;2022-08-19T03:15:09;99834.49;;;18.70;79.18
60642;BME280;46837;52.446;-1.930;2022-08-19T03:16:09;99836.42;;;18.68;78.97
60642;BME280;46837;52.446;-1.930;2022-08-19T03:17:09;99837.18;;;18.66;78.73
60642;BME280;46837;52.446;-1.930;2022-08-19T03:18:09;99837.79;;;18.61;78.35
60642;BME280;46837;52.446;-1.930;2022-08-19T03:19:09;99843.45;;;18.60;78.07
60642;BME280;46837;52.446;-1.930;2022-08-19T03:20:09;99842.94;;;18.59;78.02
60642;BME280;46837;52.446;-1.930;2022-08-19T03:21:09;99847.20;;;18.58;77.91
60642;BME280;46837;52.446;-1.930;2022-08-19T03:22:09;99850.20;;;18.54;77.94
60642;BME280;46837;52.446;-1.930;2022-08-19T03:23:09;99849.11;;;18.50;77.79
60642;BME280;46837;52.446;-1.930;2022-08-19T03:24:09;99848.30;;;18.47;77.56
60642;BME280;46837;52.446;-1.930;2022-08-19T03:25:09;99844.29;;;18.45;77.43
60642;BME280;46837;52.446;-1.930;2022-08-19T03:26:09;99846.15;;;18.43;77.24
60642;BME280;46837;52.446;-1.930;2022-08-19T03:27:09;99844.88;;;18.42;77.22
60642;BME280;46837;52.446;-1.930;2022-08-19T03:28:10;99843.08;;;18.38;76.99
60642;BME280;46837;52.446;-1.930;2022-08-19T03:29:09;99842.37;;;18.32;76.73
60642;BME280;46837;52.446;-1.930;2022-08-19T03:30:09;99839.32;;;18.33;76.58
60642;BME280;46837;52.446;-1.930;2022-08-19T03:31:11;99840.69;;;18.27;76.36
60642;BME280;46837;52.446;-1.930;2022-08-19T03:32:09;99843.88;;;18.24;76.24
60642;BME280;46837;52.446;-1.930;2022-08-19T03:33:09;99844.44;;;18.21;76.09
60642;BME280;46837;52.446;-1.930;2022-08-19T03:34:14;99845.61;;;18.17;75.73
60642;BME280;46837;52.446;-1.930;2022-08-19T03:35:09;99845.23;;;18.18;75.55
60642;BME280;46837;52.446;-1.930;2022-08-19T03:36:14;99845.77;;;18.14;75.30
60642;BME280;46837;52.446;-1.930;2022-08-19T03:37:10;99845.54;;;18.15;75.24
60642;BME280;46837;52.446;-1.930;2022-08-19T03:38:09;99848.11;;;18.08;75.18
60642;BME280;46837;52.446;-1.930;2022-08-19T03:39:09;99850.53;;;18.07;75.07
60642;BME280;46837;52.446;-1.930;2022-08-19T03:40:09;99851.64;;;18.05;75.06
60642;BME280;46837;52.446;-1.930;2022-08-19T03:41:11;99853.50;;;18.03;74.97
60642;BME280;46837;52.446;-1.930;2022-08-19T03:42:09;99857.88;;;18.02;74.92
60642;BME280;46837;52.446;-1.930;2022-08-19T03:43:09;99859.21;;;17.99;74.82
60642;BME280;46837;52.446;-1.930;2022-08-19T03:44:09;99864.64;;;18.00;74.76
60642;BME280;46837;52.446;-1.930;2022-08-19T03:45:09;99865.01;;;17.99;74.70
60642;BME280;46837;52.446;-1.930;2022-08-19T03:46:13;99867.73;;;17.97;74.83
60642;BME280;46837;52.446;-1.930;2022-08-19T03:47:09;99869.64;;;17.94;74.76
60642;BME280;46837;52.446;-1.930;2022-08-19T03:48:09;99874.64;;;17.92;74.79
60642;BME280;46837;52.446;-1.930;2022-08-19T03:49:11;99873.91;;;17.92;74.78
60642;BME280;46837;52.446;-1.930;2022-08-19T03:50:09;99872.15;;;17.92;74.79
60642;BME280;46837;52.446;-1.930;2022-08-19T03:52:10;99870.89;;;17.90;74.63
60642;BME280;46837;52.446;-1.930;2022-08-19T03:53:09;99872.23;;;17.91;74.60
60642;BME280;46837;52.446;-1.930;2022-08-19T03:54:10;99875.28;;;17.90;74.55
60642;BME280;46837;52.446;-1.930;2022-08-19T03:55:09;99874.12;;;17.90;74.51
60642;BME280;46837;52.446;-1.930;2022-08-19T03:56:09;99874.71;;;17.90;74.56
60642;BME280;46837;52.446;-1.930;2022-08-19T03:57:09;99872.71;;;17.88;74.51
60642;BME280;46837;52.446;-1.930;2022-08-19T03:58:09;99874.31;;;17.88;74.54
60642;BME280;46837;52.446;-1.930;2022-08-19T03:59:12;99871.29;;;17.89;74.47
60642;BME280;46837;52.446;-1.930;2022-08-19T04:00:09;99873.61;;;17.86;74.46
60642;BME280;46837;52.446;-1.930;2022-08-19T04:01:10;99875.47;;;17.84;74.50
60642;BME280;46837;52.446;-1.930;2022-08-19T04:02:10;99872.35;;;17.82;74.60
60642;BME280;46837;52.446;-1.930;2022-08-19T04:03:09;99873.84;;;17.80;74.65
60642;BME280;46837;52.446;-1.930;2022-08-19T04:04:09;99869.96;;;17.79;74.62
60642;BME280;46837;52.446;-1.930;2022-08-19T04:05:09;99872.47;;;17.78;74.63
60642;BME280;46837;52.446;-1.930;2022-08-19T04:07:09;99873.85;;;17.73;74.72
60642;BME280;46837;52.446;-1.930;2022-08-19T04:08:09;99877.55;;;17.73;74.68
60642;BME280;46837;52.446;-1.930;2022-08-19T04:09:10;99876.91;;;17.74;74.62
60642;BME280;46837;52.446;-1.930;2022-08-19T04:10:09;99878.51;;;17.69;74.56
60642;BME280;46837;52.446;-1.930;2022-08-19T04:11:14;99877.51;;;17.65;74.70
60642;BME280;46837;52.446;-1.930;2022-08-19T04:12:09;99881.32;;;17.65;74.61
60642;BME280;46837;52.446;-1.930;2022-08-19T04:13:09;99882.65;;;17.65;74.56
60642;BME280;46837;52.446;-1.930;2022-08-19T04:14:10;99884.02;;;17.66;74.53
60642;BME280;46837;52.446;-1.930;2022-08-19T04:15:09;99886.84;;;17.64;74.52
60642;BME280;46837;52.446;-1.930;2022-08-19T04:16:09;99883.40;;;17.67;74.56
60642;BME280;46837;52.446;-1.930;2022-08-19T04:17:09;99882.98;;;17.65;74.51
60642;BME280;46837;52.446;-1.930;2022-08-19T04:18:10;99884.50;;;17.65;74.45
60642;BME280;46837;52.446;-1.930;2022-08-19T04:19:09;99881.41;;;17.67;74.40
60642;BME280;46837;52.446;-1.930;2022-08-19T04:20:09;99883.53;;;17.68;74.34
60642;BME280;46837;52.446;-1.930;2022-08-19T04:21:14;99884.71;;;17.67;74.29
60642;BME280;46837;52.446;-1.930;2022-08-19T04:22:09;99884.19;;;17.68;74.29
60642;BME280;46837;52.446;-1.930;2022-08-19T04:23:09;99883.53;;;17.68;74.25
60642;BME280;46837;52.446;-1.930;2022-08-19T04:24:09;99885.72;;;17.70;74.17
60642;BME280;46837;52.446;-1.930;2022-08-19T04:25:09;99885.50;;;17.70;74.13
60642;BME280;46837;52.446;-1.930;2022-08-19T04:26:12;99889.89;;;17.68;74.13
60642;BME280;46837;52.446;-1.930;2022-08-19T04:27:09;99889.93;;;17.70;74.07
60642;BME280;46837;52.446;-1.930;2022-08-19T04:28:09;99893.62;;;17.70;74.04
60642;BME280;46837;52.446;-1.930;2022-08-19T04:29:13;99893.21;;;17.71;73.99
60642;BME280;46837;52.446;-1.930;2022-08-19T04:30:09;99896.27;;;17.70;74.00
60642;BME280;46837;52.446;-1.930;2022-08-19T04:31:14;99896.64;;;17.71;73.99
60642;BME280;46837;52.446;-1.930;2022-08-19T04:32:09;99894.78;;;17.70;73.96
60642;BME280;46837;52.446;-1.930;2022-08-19T04:33:09;99894.59;;;17.69;74.01
60642;BME280;46837;52.446;-1.930;2022-08-19T04:34:10;99896.64;;;17.67;74.01
60642;BME280;46837;52.446;-1.930;2022-08-19T04:35:09;99898.26;;;17.67;74.03
60642;BME280;46837;52.446;-1.930;2022-08-19T04:36:15;99903.38;;;17.65;74.10
60642;BME280;46837;52.446;-1.930;2022-08-19T04:37:09;99902.21;;;17.65;74.08
60642;BME280;46837;52.446;-1.930;2022-08-19T04:38:09;99903.50;;;17.63;74.14
60642;BME280;46837;52.446;-1.930;2022-08-19T04:39:10;99901.28;;;17.64;74.15
60642;BME280;46837;52.446;-1.930;2022-08-19T04:40:13;99904.99;;;17.63;74.11
60642;BME280;46837;52.446;-1.930;2022-08-19T04:41:13;99905.72;;;17.58;74.18
60642;BME280;46837;52.446;-1.930;2022-08-19T04:42:13;99910.96;;;17.58;74.14
60642;BME280;46837;52.446;-1.930;2022-08-19T04:43:09;99906.45;;;17.59;74.10
60642;BME280;46837;52.446;-1.930;2022-08-19T04:44:09;99908.30;;;17.58;74.12
60642;BME280;46837;52.446;-1.930;2022-08-19T04:45:13;99909.36;;;17.58;74.12
60642;BME280;46837;52.446;-1.930;2022-08-19T04:46:10;99911.04;;;17.59;74.08
60642;BME280;46837;52.446;-1.930;2022-08-19T04:47:09;99909.98;;;17.59;74.08
60642;BME280;46837;52.446;-1.930;2022-08-19T04:48:09;99906.25;;;17.57;74.08
60642;BME280;46837;52.446;-1.930;2022-08-19T04:49:09;99906.70;;;17.54;74.13
60642;BME280;46837;52.446;-1.930;2022-08-19T04:50:09;99911.03;;;17.55;74.15
60642;BME280;46837;52.446;-1.930;2022-08-19T04:51:10;99912.88;;;17.57;74.13
60642;BME280;46837;52.446;-1.930;2022-08-19T04:52:09;99917.23;;;17.55;74.17
60642;BME280;46837;52.446;-1.930;2022-08-19T04:53:09;99915.61;;;17.54;74.19
60642;BME280;46837;52.446;-1.930;2022-08-19T04:54:09;99922.10;;;17.53;74.17
60642;BME280;46837;52.446;-1.930;2022-08-19T04:55:12;99923.84;;;17.54;74.11
60642;BME280;46837;52.446;-1.930;2022-08-19T04:56:13;99927.28;;;17.54;74.18
60642;BME280;46837;52.446;-1.930;2022-08-19T04:57:09;99929.62;;;17.53;74.19
60642;BME280;46837;52.446;-1.930;2022-08-19T04:58:09;99931.14;;;17.50;74.43
60642;BME280;46837;52.446;-1.930;2022-08-19T04:59:09;99932.04;;;17.50;74.36
60642;BME280;46837;52.446;-1.930;2022-08-19T05:00:11;99932.41;;;17.50;74.32
60642;BME280;46837;52.446;-1.930;2022-08-19T05:01:11;99932.79;;;17.51;74.26
60642;BME280;46837;52.446;-1.930;2022-08-19T05:02:09;99932.84;;;17.48;74.36
60642;BME280;46837;52.446;-1.930;2022-08-19T05:03:09;99932.66;;;17.48;74.41
60642;BME280;46837;52.446;-1.930;2022-08-19T05:04:09;99930.85;;;17.47;74.38
60642;BME280;46837;52.446;-1.930;2022-08-19T05:05:09;99927.29;;;17.44;74.44
60642;BME280;46837;52.446;-1.930;2022-08-19T05:06:10;99932.32;;;17.40;74.46
60642;BME280;46837;52.446;-1.930;2022-08-19T05:07:09;99930.91;;;17.37;74.50
60642;BME280;46837;52.446;-1.930;2022-08-19T05:08:09;99927.05;;;17.35;74.55
60642;BME280;46837;52.446;-1.930;2022-08-19T05:09:09;99929.48;;;17.33;74.55
60642;BME280;46837;52.446;-1.930;2022-08-19T05:10:09;99931.33;;;17.30;74.60
60642;BME280;46837;52.446;-1.930;2022-08-19T05:11:14;99936.36;;;17.28;74.60
60642;BME280;46837;52.446;-1.930;2022-08-19T05:12:09;99938.18;;;17.20;74.72
60642;BME280;46837;52.446;-1.930;2022-08-19T05:13:09;99939.80;;;17.17;74.78
60642;BME280;46837;52.446;-1.930;2022-08-19T05:14:09;99944.32;;;17.16;74.80
60642;BME280;46837;52.446;-1.930;2022-08-19T05:15:09;99946.72;;;17.11;74.91
60642;BME280;46837;52.446;-1.930;2022-08-19T05:16:09;99946.38;;;17.03;75.01
60642;BME280;46837;52.446;-1.930;2022-08-19T05:17:09;99946.57;;;17.00;75.19
60642;BME280;46837;52.446;-1.930;2022-08-19T05:18:13;99951.90;;;17.03;75.04
60642;BME280;46837;52.446;-1.930;2022-08-19T05:19:13;99950.58;;;16.97;75.09
60642;BME280;46837;52.446;-1.930;2022-08-19T05:20:13;99950.35;;;16.93;75.15